Time;durP1;ratioP1;P1;durP2;ratioP2;P2;SDS_P1;SDS_P2;PMS_P1;PMS_P2;Temp;Humidity;BMP_temperature;BMP_pressure;BME280_temperature;BME280_humidity;BME280_pressure;Samples;Min_cycle;Max_cycle;Signal;HPM_P1;HPM_P2
2022/10/03 00:02:06;;;;;;;5.78;1.40;;;20.20;66.40;;;;;;5012150;28;20042;-75
2022/10/03 00:04:43;;;;;;;3.70;1.60;;;20.20;66.40;;;;;;4994761;28;20497;-76
2022/10/03 00:07:54;;;;;;;5.15;1.23;;;20.20;66.30;;;;;;5012621;28;20056;-75
2022/10/03 00:10:25;;;;;;;5.75;1.38;;;20.10;66.30;;;;;;4984831;28;20378;-75
2022/10/03 00:12:54;;;;;;;4.68;1.30;;;20.10;66.40;;;;;;5015061;28;20128;-75
2022/10/03 00:15:25;;;;;;;5.45;1.42;;;20.10;66.30;;;;;;5015278;28;20042;-74
2022/10/03 00:18:11;;;;;;;6.32;1.35;;;20.10;66.30;;;;;;4997551;28;20073;-75
2022/10/03 00:21:01;;;;;;;4.95;1.60;;;20.10;66.30;;;;;;5014887;28;20177;-75
2022/10/03 00:23:58;;;;;;;4.47;1.63;;;20.10;66.30;;;;;;5014123;28;20061;-74
2022/10/03 00:26:39;;;;;;;5.13;1.67;;;20.10;66.20;;;;;;5013332;28;20045;-75
2022/10/03 00:29:13;;;;;;;4.47;1.70;;;20.10;66.20;;;;;;4997847;28;20085;-75
2022/10/03 00:31:56;;;;;;;5.00;1.27;;;20.10;66.30;;;;;;4997685;28;20086;-75
2022/10/03 00:34:40;;;;;;;3.55;1.13;;;20.10;66.20;;;;;;4997004;28;20042;-75
2022/10/03 00:37:21;;;;;;;4.43;1.20;;;20.10;66.20;;;;;;5014839;28;20080;-75
2022/10/03 00:39:55;;;;;;;6.43;1.33;;;20.10;66.20;;;;;;5014022;28;20042;-75
2022/10/03 00:42:39;;;;;;;3.45;1.20;;;20.10;66.20;;;;;;5014012;28;20128;-75
2022/10/03 00:45:17;;;;;;;4.05;1.33;;;20.10;66.20;;;;;;5014870;28;20371;-75
2022/10/03 00:48:25;;;;;;;3.58;1.25;;;20.10;66.20;;;;;;5012659;28;20112;-75
2022/10/03 00:51:07;;;;;;;4.47;1.33;;;20.10;66.20;;;;;;4973403;28;20145;-75
2022/10/03 00:53:52;;;;;;;7.70;1.48;;;20.00;66.10;;;;;;4958427;28;20526;-75
2022/10/03 00:56:33;;;;;;;3.58;1.15;;;20.00;66.10;;;;;;4986468;28;20153;-75
2022/10/03 00:59:35;;;;;;;4.82;1.40;;;20.00;66.10;;;;;;5013750;28;20053;-75
2022/10/03 01:02:29;;;;;;;5.85;1.17;;;20.00;66.10;;;;;;5013072;28;20085;-75
2022/10/03 01:05:03;;;;;;;4.85;1.20;;;20.00;66.00;;;;;;5013368;28;20125;-75
2022/10/03 01:07:49;;;;;;;3.53;0.95;;;20.00;66.00;;;;;;4997111;28;20057;-75
2022/10/03 01:10:35;;;;;;;3.55;1.30;;;20.00;66.10;;;;;;5012694;28;20117;-75
2022/10/03 01:13:22;;;;;;;5.13;1.00;;;20.00;66.00;;;;;;5013272;28;20441;-75
2022/10/03 01:16:09;;;;;;;4.68;1.10;;;20.00;66.00;;;;;;4996499;28;20042;-76
2022/10/03 01:18:44;;;;;;;3.53;0.82;;;20.00;66.10;;;;;;5013592;28;20049;-75
2022/10/03 01:21:22;;;;;;;4.70;0.80;;;20.00;66.10;;;;;;5014141;28;20073;-75
2022/10/03 01:23:53;;;;;;;4.40;0.98;;;20.00;66.00;;;;;;5013882;28;20099;-75
2022/10/03 01:26:31;;;;;;;3.72;1.30;;;20.00;66.10;;;;;;5014187;28;20052;-75
2022/10/03 01:32:51;;;;;;;4.65;0.90;;;20.00;66.10;;;;;;5009788;28;20055;-75
2022/10/03 01:35:21;;;;;;;3.42;0.80;;;19.90;66.00;;;;;;4971139;28;20511;-75
2022/10/03 01:37:58;;;;;;;3.47;1.30;;;19.90;66.00;;;;;;4995939;28;20090;-75
2022/10/03 01:41:05;;;;;;;4.15;1.00;;;19.90;66.00;;;;;;4996685;28;20091;-75
2022/10/03 01:43:37;;;;;;;4.10;1.10;;;19.90;66.60;;;;;;4944269;28;20183;-75
2022/10/03 01:46:21;;;;;;;3.50;0.93;;;19.90;66.00;;;;;;5013008;28;20068;-76
2022/10/03 01:49:07;;;;;;;3.78;1.15;;;19.90;65.90;;;;;;5012968;28;20080;-75
2022/10/03 01:51:42;;;;;;;4.28;1.20;;;19.90;66.00;;;;;;5011906;28;20046;-75
2022/10/03 01:54:16;;;;;;;2.92;0.80;;;19.90;65.90;;;;;;5013211;28;20097;-75
2022/10/03 01:56:56;;;;;;;4.15;1.25;;;19.90;66.00;;;;;;4996206;28;20049;-75
2022/10/03 02:00:11;;;;;;;5.03;1.00;;;19.90;65.90;;;;;;5011409;28;20500;-75
2022/10/03 02:02:48;;;;;;;2.05;0.82;;;19.90;65.90;;;;;;4934024;29;20058;-75
2022/10/03 02:05:38;;;;;;;4.18;1.05;;;19.90;65.90;;;;;;4932234;29;20138;-75
2022/10/03 02:08:13;;;;;;;4.28;0.88;;;19.80;65.80;;;;;;4972733;28;20053;-75
2022/10/03 02:11:07;;;;;;;3.75;0.73;;;19.90;66.00;;;;;;4995989;28;20054;-75
2022/10/03 02:13:51;;;;;;;3.22;0.85;;;19.80;65.90;;;;;;5011533;28;20089;-75
2022/10/03 02:16:41;;;;;;;2.10;0.70;;;19.90;66.00;;;;;;5011896;28;20046;-75
2022/10/03 02:19:21;;;;;;;5.72;1.00;;;19.80;65.90;;;;;;4995478;28;20042;-75
2022/10/03 02:21:54;;;;;;;3.60;0.90;;;19.80;65.90;;;;;;5013421;28;20046;-75
2022/10/03 02:24:27;;;;;;;3.42;0.80;;;19.80;66.50;;;;;;4995296;28;20064;-75
2022/10/03 02:27:21;;;;;;;4.68;1.70;;;19.80;65.90;;;;;;5011550;28;20046;-75
2022/10/03 02:30:08;;;;;;;3.97;0.73;;;19.80;65.90;;;;;;5011453;28;20053;-75
2022/10/03 02:32:59;;;;;;;4.03;0.80;;;19.80;65.90;;;;;;4995437;28;20046;-75
2022/10/03 02:35:45;;;;;;;2.92;1.20;;;19.80;65.90;;;;;;4995039;28;20049;-75
2022/10/03 02:38:17;;;;;;;2.85;0.73;;;19.80;65.90;;;;;;5011636;28;20045;-75
2022/10/03 02:41:07;;;;;;;4.35;1.23;;;19.80;65.90;;;;;;5012364;28;20092;-75
2022/10/03 02:43:42;;;;;;;3.35;0.70;;;19.80;65.80;;;;;;5013098;28;20072;-75
2022/10/03 02:46:39;;;;;;;6.13;1.40;;;19.80;65.80;;;;;;5012917;28;20042;-75
2022/10/03 02:49:32;;;;;;;5.10;0.90;;;19.80;65.90;;;;;;4968728;28;20104;-74
2022/10/03 02:52:35;;;;;;;3.28;1.00;;;19.80;65.80;;;;;;5013206;28;20413;-75
2022/10/03 02:55:42;;;;;;;2.53;0.70;;;19.80;65.80;;;;;;5013186;28;20092;-75
2022/10/03 02:58:45;;;;;;;4.88;0.98;;;19.80;65.90;;;;;;5001691;28;20061;-75
2022/10/03 03:01:36;;;;;;;2.53;0.70;;;19.70;65.80;;;;;;5012082;28;20194;-75
2022/10/03 03:04:19;;;;;;;3.85;0.70;;;19.70;65.80;;;;;;4995119;28;20038;-75
2022/10/03 03:07:11;;;;;;;3.15;0.80;;;19.70;65.80;;;;;;4995101;28;20050;-75
2022/10/03 03:09:58;;;;;;;2.60;0.88;;;19.70;65.80;;;;;;5010924;28;20050;-74
2022/10/03 03:13:03;;;;;;;3.47;0.90;;;19.70;65.80;;;;;;4994541;28;20549;-75
2022/10/03 03:15:47;;;;;;;3.67;1.00;;;19.70;65.80;;;;;;5011251;28;20057;-74
2022/10/03 03:18:42;;;;;;;2.38;0.82;;;19.70;65.80;;;;;;5012608;28;20460;-75
2022/10/03 03:21:11;;;;;;;3.45;0.80;;;19.70;65.70;;;;;;5011114;28;20189;-76
2022/10/03 03:23:56;;;;;;;3.67;1.10;;;19.70;65.70;;;;;;5010348;28;20077;-75
2022/10/03 03:26:31;;;;;;;2.85;0.90;;;19.70;65.70;;;;;;5010920;28;20132;-75
2022/10/03 03:29:03;;;;;;;3.22;0.80;;;19.70;65.70;;;;;;4994847;28;20038;-75
2022/10/03 03:32:01;;;;;;;3.45;0.80;;;19.70;65.70;;;;;;5012225;28;20103;-75
2022/10/03 03:34:36;;;;;;;;;;;19.80;65.70;;;;;;4995992;28;20046;-75
2022/10/03 03:37:13;;;;;;;2.95;0.93;;;19.70;65.70;;;;;;4993949;28;19963;-75
2022/10/03 03:40:18;;;;;;;1.43;0.60;;;19.80;65.80;;;;;;4995167;28;20052;-75
2022/10/03 03:43:02;;;;;;;1.45;0.70;;;19.80;65.80;;;;;;5015824;28;20309;-75
2022/10/03 03:45:39;;;;;;;3.67;0.75;;;19.80;65.80;;;;;;4997671;28;20056;-75
2022/10/03 03:48:24;;;;;;;2.88;0.70;;;19.80;65.70;;;;;;5014678;28;20502;-75
2022/10/03 03:51:06;;;;;;;2.28;0.65;;;19.80;65.80;;;;;;5015201;28;20084;-75
2022/10/03 03:53:48;;;;;;;3.10;0.90;;;19.80;65.70;;;;;;5015361;28;20049;-76
2022/10/03 03:56:37;;;;;;;3.58;0.88;;;19.80;65.70;;;;;;5014998;28;20124;-76
2022/10/03 03:59:30;;;;;;;3.22;0.75;;;19.80;65.70;;;;;;5014976;28;20050;-76
2022/10/03 04:02:14;;;;;;;5.00;0.70;;;19.90;65.70;;;;;;4982004;28;20438;-76
2022/10/03 04:04:50;;;;;;;4.72;1.00;;;19.90;65.70;;;;;;5014049;28;20490;-76
2022/10/03 04:07:29;;;;;;;3.60;1.05;;;19.90;65.70;;;;;;4997501;28;20042;-75
2022/10/03 04:10:02;;;;;;;3.25;1.00;;;19.90;65.70;;;;;;4998502;28;20050;-75
2022/10/03 04:12:54;;;;;;;2.63;0.70;;;19.90;65.70;;;;;;4997160;28;20050;-75
2022/10/03 04:15:29;;;;;;;3.33;0.82;;;19.90;65.70;;;;;;5015609;28;20046;-76
2022/10/03 04:21:51;;;;;;;2.80;0.90;;;19.90;65.60;;;;;;5015323;28;20041;-76
2022/10/03 04:24:35;;;;;;;3.83;0.90;;;19.90;65.70;;;;;;4954536;29;20500;-76
2022/10/03 04:27:19;;;;;;;3.00;1.05;;;20.00;65.70;;;;;;5009072;28;20085;-76
2022/10/03 04:29:54;;;;;;;3.78;1.10;;;20.00;65.70;;;;;;4997891;28;20053;-76
2022/10/03 04:32:38;;;;;;;2.70;0.93;;;20.00;65.60;;;;;;5014563;28;20060;-76
2022/10/03 04:35:08;;;;;;;4.30;1.15;;;20.00;65.60;;;;;;4997828;28;20128;-75
2022/10/03 04:37:42;;;;;;;3.55;1.30;;;20.00;65.60;;;;;;4997962;28;20038;-76
2022/10/03 04:40:14;;;;;;;3.90;1.15;;;20.00;65.60;;;;;;5014427;28;20042;-75
2022/10/03 04:43:08;;;;;;;4.40;1.30;;;20.00;65.60;;;;;;5015296;28;20068;-75
2022/10/03 04:45:54;;;;;;;3.42;1.38;;;20.00;65.50;;;;;;4999823;28;20520;-75
2022/10/03 04:48:53;;;;;;;2.70;0.98;;;20.00;65.50;;;;;;4996517;28;20128;-75
2022/10/03 04:52:04;;;;;;;4.25;1.30;;;20.00;65.50;;;;;;4999925;28;20056;-76
2022/10/03 04:54:34;;;;;;;2.88;1.13;;;20.00;65.50;;;;;;5010810;28;20093;-75
2022/10/03 04:57:18;;;;;;;3.58;1.30;;;20.00;65.50;;;;;;5015022;28;20053;-76
2022/10/03 04:59:58;;;;;;;3.78;1.10;;;20.00;65.50;;;;;;5014975;28;20209;-76
2022/10/03 05:02:35;;;;;;;5.15;2.00;;;20.00;65.50;;;;;;4996768;28;20068;-76
2022/10/03 05:05:23;;;;;;;4.35;1.95;;;20.00;65.50;;;;;;4997284;28;20061;-76
2022/10/03 05:08:00;;;;;;;4.53;2.03;;;20.00;65.40;;;;;;5013943;28;20164;-75
2022/10/03 05:10:37;;;;;;;3.97;1.55;;;20.00;65.50;;;;;;5014291;28;20050;-75
2022/10/03 05:13:28;;;;;;;4.47;1.70;;;20.00;65.50;;;;;;5014444;28;20512;-75
2022/10/03 05:16:01;;;;;;;4.57;1.80;;;20.00;65.50;;;;;;4980199;28;20121;-75
2022/10/03 05:18:48;;;;;;;4.30;1.70;;;20.00;66.10;;;;;;4996927;28;20054;-75
2022/10/03 05:21:54;;;;;;;6.00;2.38;;;20.00;65.40;;;;;;4996842;28;20046;-75
2022/10/03 05:24:40;;;;;;;3.88;1.75;;;20.00;65.40;;;;;;4953516;29;20079;-75
2022/10/03 05:28:02;;;;;;;5.75;1.95;;;20.00;65.40;;;;;;4953773;29;20079;-75
2022/10/03 05:30:43;;;;;;;3.75;2.20;;;20.00;65.40;;;;;;4946229;28;20057;-75
2022/10/03 05:33:24;;;;;;;5.55;2.15;;;20.00;65.50;;;;;;4980297;28;20050;-75
2022/10/03 05:36:11;;;;;;;5.25;2.30;;;20.00;65.40;;;;;;5013031;28;20050;-75
2022/10/03 05:39:01;;;;;;;7.30;2.10;;;20.00;65.40;;;;;;4996775;28;20068;-75
2022/10/03 05:41:31;;;;;;;5.20;2.17;;;20.00;65.40;;;;;;4979873;28;20880;-75
2022/10/03 05:44:00;;;;;;;5.15;2.10;;;20.00;65.40;;;;;;4980185;28;20038;-75
2022/10/03 05:46:40;;;;;;;5.10;2.10;;;20.00;65.50;;;;;;5013299;28;20406;-74
2022/10/03 05:49:07;;;;;;;5.00;1.85;;;20.00;65.40;;;;;;4964564;28;20053;-76
2022/10/03 05:52:01;;;;;;;4.45;1.92;;;20.00;65.50;;;;;;4995488;28;20053;-75
2022/10/03 05:55:19;;;;;;;5.18;2.25;;;20.00;65.50;;;;;;5013780;28;20136;-76
2022/10/03 05:58:06;;;;;;;4.88;2.20;;;20.00;65.40;;;;;;4967820;28;20050;-76
2022/10/03 06:01:09;;;;;;;4.88;2.45;;;20.00;65.50;;;;;;4996030;28;20053;-72
2022/10/03 06:03:56;;;;;;;6.32;2.67;;;20.00;65.50;;;;;;4995058;28;20120;-73
2022/10/03 06:06:28;;;;;;;8.18;2.35;;;20.00;65.40;;;;;;5001519;28;20046;-75
2022/10/03 06:09:19;;;;;;;5.18;2.03;;;20.00;65.50;;;;;;4994269;28;20156;-75
2022/10/03 06:11:58;;;;;;;4.70;2.08;;;20.00;65.60;;;;;;4993130;28;20042;-76
2022/10/03 06:14:28;;;;;;;5.95;2.00;;;20.00;65.60;;;;;;4993622;28;20046;-76
2022/10/03 06:17:14;;;;;;;12.10;2.50;;;20.10;65.60;;;;;;4992612;28;20077;-77
2022/10/03 06:19:59;;;;;;;6.03;2.33;;;20.10;65.60;;;;;;4992947;28;20414;-76
2022/10/03 06:23:10;;;;;;;6.88;2.53;;;20.00;65.70;;;;;;4992528;28;20095;-76
2022/10/03 06:26:11;;;;;;;5.90;1.92;;;20.10;65.80;;;;;;4989591;28;20134;-76
2022/10/03 06:29:01;;;;;;;5.40;2.30;;;20.10;65.70;;;;;;4960818;28;20055;-76
2022/10/03 06:31:57;;;;;;;6.88;2.22;;;20.10;65.80;;;;;;4993195;28;20054;-75
2022/10/03 06:34:37;;;;;;;5.75;1.73;;;20.10;65.90;;;;;;4992122;28;20085;-74
2022/10/03 06:37:27;;;;;;;8.60;2.50;;;20.10;65.90;;;;;;4993469;28;20124;-76
2022/10/03 06:40:08;;;;;;;7.97;2.15;;;20.20;66.10;;;;;;4975473;28;20069;-74
2022/10/03 06:42:52;;;;;;;8.85;2.03;;;20.20;66.20;;;;;;4993089;28;20049;-75
2022/10/03 06:45:39;;;;;;;6.95;2.05;;;20.20;66.30;;;;;;5012593;28;20056;-75
2022/10/03 06:48:05;;;;;;;5.50;1.98;;;20.20;66.30;;;;;;5012014;28;20057;-76
2022/10/03 06:50:42;;;;;;;5.45;2.25;;;20.20;66.40;;;;;;5012519;28;20053;-75
2022/10/03 06:53:22;;;;;;;4.47;1.80;;;20.30;66.50;;;;;;5010377;28;20111;-76
2022/10/03 06:56:22;;;;;;;6.00;1.60;;;20.30;66.50;;;;;;4995443;28;20065;-75
2022/10/03 06:59:09;;;;;;;6.72;1.70;;;20.30;66.50;;;;;;5012876;28;20042;-78
2022/10/03 07:01:53;;;;;;;6.82;2.20;;;20.30;66.80;;;;;;5012052;28;20053;-77
2022/10/03 07:04:42;;;;;;;4.63;1.60;;;20.30;66.60;;;;;;5011282;28;20037;-77
2022/10/03 07:07:34;;;;;;;3.90;1.50;;;20.40;66.70;;;;;;5010338;28;20169;-77
2022/10/03 07:10:31;;;;;;;7.82;1.50;;;20.40;66.60;;;;;;4995201;28;20233;-76
2022/10/03 07:13:20;;;;;;;4.47;1.67;;;20.40;66.60;;;;;;4994749;28;20054;-76
2022/10/03 07:15:48;;;;;;;7.93;2.33;;;20.40;66.60;;;;;;5010667;28;20103;-77
2022/10/03 07:18:34;;;;;;;5.20;1.75;;;20.40;66.50;;;;;;5011307;28;20147;-76
2022/10/03 07:21:03;;;;;;;10.63;1.90;;;20.50;66.70;;;;;;5012205;28;20444;-76
2022/10/03 07:23:56;;;;;;;6.18;1.50;;;20.50;66.60;;;;;;4993643;28;20103;-76
2022/10/03 07:26:59;;;;;;;6.18;1.45;;;20.50;66.50;;;;;;5000625;28;20096;-75
2022/10/03 07:29:37;;;;;;;6.63;1.42;;;20.50;66.60;;;;;;4991709;28;20057;-77
2022/10/03 07:32:35;;;;;;;5.53;1.60;;;20.50;66.50;;;;;;4992792;28;20047;-74
2022/10/03 07:35:23;;;;;;;6.57;1.67;;;20.50;66.60;;;;;;4991904;28;20125;-77
2022/10/03 07:41:18;;;;;;;5.80;1.55;;;20.60;66.70;;;;;;4991843;28;20046;-76
2022/10/03 07:44:19;;;;;;;3.70;1.55;;;20.50;66.60;;;;;;4971792;28;20420;-78
2022/10/03 07:47:14;;;;;;;4.03;1.33;;;20.50;66.60;;;;;;4990303;28;20050;-77
2022/10/03 07:50:01;;;;;;;6.20;1.20;;;20.60;66.70;;;;;;4998365;28;20049;-77
2022/10/03 07:52:37;;;;;;;4.45;1.42;;;20.60;66.60;;;;;;5004062;28;20089;-76
2022/10/03 07:55:24;;;;;;;6.20;1.55;;;20.60;66.70;;;;;;4984937;28;20066;-77
2022/10/03 07:58:14;;;;;;;4.15;1.15;;;20.70;66.80;;;;;;5006050;28;20077;-77
2022/10/03 08:01:08;;;;;;;4.28;1.40;;;20.60;66.80;;;;;;5003909;28;20085;-76
2022/10/03 08:03:52;;;;;;;6.35;1.58;;;20.70;66.80;;;;;;5003867;28;20046;-76
2022/10/03 08:06:46;;;;;;;11.65;1.35;;;20.70;66.80;;;;;;5004855;28;20093;-73
2022/10/03 08:09:32;;;;;;;4.93;1.45;;;20.70;66.90;;;;;;4992154;28;20058;-74
2022/10/03 08:12:16;;;;;;;6.32;1.27;;;20.70;66.80;;;;;;5007858;28;20053;-75
2022/10/03 08:15:02;;;;;;;4.20;1.20;;;20.80;66.70;;;;;;5002961;28;20093;-75
2022/10/03 08:17:53;;;;;;;4.85;1.40;;;20.80;66.70;;;;;;5003443;28;20061;-76
2022/10/03 08:20:28;;;;;;;5.00;1.38;;;20.80;66.70;;;;;;5002034;28;20501;-77
2022/10/03 08:23:04;;;;;;;5.30;1.10;;;20.80;66.60;;;;;;5004500;28;20038;-77
2022/10/03 08:25:45;;;;;;;5.13;1.20;;;20.80;66.60;;;;;;5009439;28;20054;-77
2022/10/03 08:28:45;;;;;;;5.70;1.10;;;20.80;66.50;;;;;;4996991;28;20054;-77
2022/10/03 08:31:14;;;;;;;5.30;1.20;;;20.90;66.60;;;;;;5011372;28;20113;-78
2022/10/03 08:33:52;;;;;;;6.40;1.30;;;20.90;66.50;;;;;;5014961;28;20049;-78
2022/10/03 08:36:33;;;;;;;;;;;20.90;66.60;;;;;;4998281;28;20069;-77
2022/10/03 08:39:13;;;;;;;9.27;1.48;;;20.90;66.60;;;;;;5014813;28;19925;-76
2022/10/03 08:41:53;;;;;;;7.93;1.13;;;21.00;66.60;;;;;;4992244;28;20050;-75
2022/10/03 08:44:41;;;;;;;10.13;1.35;;;21.00;66.60;;;;;;4994527;28;20413;-64
2022/10/03 08:47:32;;;;;;;9.25;1.60;;;21.00;66.80;;;;;;4977121;28;20484;-61
2022/10/03 08:50:16;;;;;;;11.43;1.83;;;21.00;66.70;;;;;;4978107;28;20417;-61
2022/10/03 08:52:55;;;;;;;6.45;1.38;;;21.00;66.90;;;;;;4994920;28;20047;-61
2022/10/03 08:55:41;;;;;;;8.00;1.40;;;21.10;67.00;;;;;;4994180;28;20390;-59
2022/10/03 08:58:25;;;;;;;7.05;1.40;;;21.10;67.00;;;;;;4977722;28;20508;-60
2022/10/03 09:01:28;;;;;;;10.43;1.50;;;21.10;67.10;;;;;;4994913;28;20050;-64
2022/10/03 09:04:29;;;;;;;8.60;1.50;;;21.10;67.20;;;;;;4995675;28;20520;-63
2022/10/03 09:07:18;;;;;;;13.40;1.20;;;21.10;67.20;;;;;;5004678;28;20038;-63
2022/10/03 09:09:53;;;;;;;9.25;1.30;;;21.20;67.20;;;;;;4994976;28;20482;-63
2022/10/03 09:12:52;;;;;;;11.38;1.60;;;21.20;67.20;;;;;;5004487;28;20042;-61
2022/10/03 09:15:36;;;;;;;11.95;1.63;;;21.20;67.20;;;;;;4994326;28;20522;-62
2022/10/03 09:18:08;;;;;;;5.15;1.00;;;21.20;67.10;;;;;;4994954;28;20042;-62
2022/10/03 09:21:11;;;;;;;7.03;1.20;;;21.20;67.00;;;;;;4995280;28;20116;-61
2022/10/03 09:24:04;;;;;;;6.85;1.42;;;21.20;66.80;;;;;;4996529;28;20049;-62
2022/10/03 09:26:35;;;;;;;7.20;1.00;;;21.20;66.70;;;;;;4994100;28;20054;-61
2022/10/03 09:29:14;;;;;;;7.00;1.15;;;21.20;66.70;;;;;;4994576;28;20038;-62
2022/10/03 09:31:58;;;;;;;10.13;1.75;;;21.20;66.70;;;;;;4994173;28;20053;-64
2022/10/03 09:34:38;;;;;;;11.57;2.55;;;21.20;66.90;;;;;;4977589;28;20042;-62
2022/10/03 09:37:35;;;;;;;12.52;2.25;;;21.20;66.90;;;;;;4991264;28;20050;-61
2022/10/03 09:40:20;;;;;;;11.30;2.80;;;21.20;67.00;;;;;;4979051;28;20061;-62
2022/10/03 09:43:17;;;;;;;20.15;3.58;;;21.20;67.00;;;;;;5012888;28;20077;-62
2022/10/03 09:46:22;;;;;;;15.77;2.95;;;21.20;67.30;;;;;;5013592;28;20096;-61
2022/10/03 09:48:59;;;;;;;13.77;2.90;;;21.20;67.20;;;;;;5011903;28;20058;-62
2022/10/03 09:52:02;;;;;;;13.63;2.50;;;21.20;67.20;;;;;;5013015;28;20077;-62
2022/10/03 09:54:38;;;;;;;9.93;2.40;;;21.20;66.70;;;;;;5013230;28;20057;-62
2022/10/03 09:57:19;;;;;;;11.52;2.03;;;21.20;66.60;;;;;;5012041;28;20128;-62
2022/10/03 10:00:06;;;;;;;9.63;2.15;;;21.10;66.30;;;;;;5013902;28;20046;-61
2022/10/03 10:03:04;;;;;;;10.25;2.00;;;21.20;66.10;;;;;;5012677;28;20042;-62
2022/10/03 10:05:49;;;;;;;10.02;1.98;;;21.10;65.90;;;;;;5012017;28;20437;-62
2022/10/03 10:08:53;;;;;;;7.47;1.67;;;21.10;65.80;;;;;;5012609;28;20038;-63
2022/10/03 10:11:38;;;;;;;9.60;1.38;;;21.10;65.20;;;;;;5010856;28;20411;-63
2022/10/03 10:14:35;;;;;;;9.00;1.42;;;21.10;65.30;;;;;;5012426;28;20042;-62
2022/10/03 10:17:19;;;;;;;6.55;1.15;;;21.10;65.00;;;;;;4995650;28;20593;-63
2022/10/03 10:19:50;;;;;;;6.78;1.27;;;21.10;65.10;;;;;;5013804;28;20038;-62
2022/10/03 10:22:34;;;;;;;9.85;1.95;;;21.10;65.10;;;;;;5013456;28;20096;-63
2022/10/03 10:25:19;;;;;;;8.77;1.65;;;21.10;65.10;;;;;;5013235;28;20046;-63
2022/10/03 10:27:58;;;;;;;7.93;1.60;;;21.10;65.10;;;;;;5013827;28;20046;-61
2022/10/03 10:30:46;;;;;;;6.82;1.42;;;21.10;65.20;;;;;;5012009;28;20042;-61
2022/10/03 10:33:14;;;;;;;5.90;1.30;;;21.10;65.30;;;;;;5008356;28;20388;-61
2022/10/03 10:35:40;;;;;;;7.60;1.25;;;21.10;65.30;;;;;;5000896;28;20074;-60
2022/10/03 10:38:31;;;;;;;7.57;1.15;;;21.10;65.30;;;;;;5001566;28;20124;-62
2022/10/03 10:41:15;;;;;;;7.47;1.48;;;21.10;65.40;;;;;;5000518;28;20544;-61
2022/10/03 10:43:59;;;;;;;7.72;1.40;;;21.10;65.50;;;;;;4976353;28;20065;-61
2022/10/03 10:46:49;;;;;;;7.68;1.42;;;21.10;65.50;;;;;;4992742;28;20046;-61
2022/10/03 10:49:52;;;;;;;10.13;1.20;;;21.10;65.50;;;;;;4993115;28;20387;-61
2022/10/03 10:52:46;;;;;;;6.88;1.20;;;21.10;65.50;;;;;;4992693;28;20046;-61
2022/10/03 10:55:36;;;;;;;7.40;1.52;;;21.10;65.40;;;;;;4993135;28;20383;-61
2022/10/03 10:58:49;;;;;;;4.97;1.00;;;21.10;65.40;;;;;;4992246;28;20043;-62
2022/10/03 11:01:57;;;;;;;6.60;1.20;;;21.10;65.40;;;;;;4975444;28;20053;-60
2022/10/03 11:04:25;;;;;;;;;;;21.00;65.30;;;;;;4965640;28;20054;-60
2022/10/03 11:07:15;;;;;;;7.22;1.20;;;21.00;65.30;;;;;;4992728;28;19921;-60
2022/10/03 11:09:59;;;;;;;6.53;1.15;;;21.00;65.30;;;;;;4993563;28;20069;-61
2022/10/03 11:12:44;;;;;;;6.80;1.42;;;21.10;65.30;;;;;;4992841;28;20046;-60
2022/10/03 11:15:42;;;;;;;6.82;0.90;;;21.00;65.30;;;;;;4992301;28;20378;-61
2022/10/03 11:18:41;;;;;;;4.88;0.93;;;21.00;65.20;;;;;;4991871;28;20478;-61
2022/10/03 11:21:22;;;;;;;4.47;0.68;;;21.00;65.20;;;;;;4975000;28;20410;-60
2022/10/03 11:24:19;;;;;;;7.78;1.13;;;21.00;65.30;;;;;;4993471;28;20061;-60
2022/10/03 11:27:22;;;;;;;4.63;0.95;;;21.00;65.20;;;;;;4976507;28;20042;-60
2022/10/03 11:30:06;;;;;;;5.45;0.95;;;21.00;65.20;;;;;;4993177;28;20391;-61
2022/10/03 11:32:50;;;;;;;6.72;0.85;;;21.00;65.30;;;;;;4993229;28;20042;-61
2022/10/03 11:35:37;;;;;;;5.10;0.98;;;21.00;65.20;;;;;;4974817;28;20078;-61
2022/10/03 11:38:14;;;;;;;7.07;1.45;;;21.00;65.20;;;;;;4992186;28;20057;-61
2022/10/03 11:41:04;;;;;;;6.13;0.90;;;21.00;65.00;;;;;;4992353;28;20053;-61
2022/10/03 11:44:12;;;;;;;5.28;0.80;;;21.10;64.90;;;;;;4990936;28;20046;-61
2022/10/03 11:46:50;;;;;;;2.97;0.65;;;21.00;64.80;;;;;;4992072;28;20105;-61
2022/10/03 11:49:36;;;;;;;5.75;1.13;;;21.00;64.90;;;;;;4991062;28;20125;-61
2022/10/03 11:52:24;;;;;;;7.38;0.88;;;21.00;64.90;;;;;;4993113;28;20101;-61
2022/10/03 11:54:54;;;;;;;;;;;21.10;64.90;;;;;;4992725;28;20053;-61
2022/10/03 11:57:30;;;;;;;3.70;0.60;;;21.00;64.90;;;;;;4990826;28;20378;-61
2022/10/03 12:00:03;;;;;;;5.80;0.80;;;21.00;64.90;;;;;;4975881;28;20046;-61
2022/10/03 12:02:43;;;;;;;6.22;0.80;;;21.00;64.90;;;;;;4992216;28;20096;-61
2022/10/03 12:05:37;;;;;;;4.50;0.80;;;21.10;65.00;;;;;;4996696;28;20050;-61
2022/10/03 12:11:15;;;;;;;4.80;0.80;;;21.10;64.90;;;;;;4994952;28;20080;-60
2022/10/03 12:14:08;;;;;;;7.50;0.77;;;21.00;64.90;;;;;;4996594;28;20410;-60
2022/10/03 12:16:52;;;;;;;7.85;1.00;;;21.10;64.90;;;;;;4996002;28;20485;-61
2022/10/03 12:19:29;;;;;;;5.28;0.88;;;21.00;64.90;;;;;;4994918;28;20100;-60
2022/10/03 12:21:59;;;;;;;5.88;0.73;;;21.10;65.00;;;;;;4996458;28;20034;-60
2022/10/03 12:24:30;;;;;;;3.92;0.60;;;21.10;65.00;;;;;;4978202;28;20057;-61
2022/10/03 12:27:11;;;;;;;2.67;0.63;;;21.10;65.00;;;;;;4995323;28;20046;-60
2022/10/03 12:29:39;;;;;;;5.05;0.95;;;21.10;65.00;;;;;;4996181;28;20046;-61
2022/10/03 12:32:24;;;;;;;6.25;0.85;;;21.10;65.50;;;;;;4978001;28;20397;-60
2022/10/03 12:35:18;;;;;;;2.13;0.60;;;21.20;64.90;;;;;;4978820;28;20046;-60
2022/10/03 12:37:59;;;;;;;4.57;0.80;;;21.10;64.80;;;;;;4995255;28;20486;-61
2022/10/03 12:40:27;;;;;;;3.78;0.70;;;21.20;65.50;;;;;;4994905;28;20050;-61
2022/10/03 12:43:04;;;;;;;4.35;0.63;;;21.20;64.80;;;;;;4995467;28;20500;-61
2022/10/03 12:45:42;;;;;;;4.00;0.63;;;21.20;64.80;;;;;;4995104;28;20078;-61
2022/10/03 12:48:07;;;;;;;2.60;0.60;;;21.10;64.80;;;;;;4995324;28;20062;-61
2022/10/03 12:50:53;;;;;;;3.22;0.60;;;21.20;64.90;;;;;;4995826;28;20848;-61
2022/10/03 12:53:29;;;;;;;1.58;0.63;;;21.20;64.90;;;;;;4994951;28;20089;-60
2022/10/03 12:56:13;;;;;;;3.38;0.45;;;21.20;64.90;;;;;;4978435;28;20398;-61
2022/10/03 12:58:55;;;;;;;2.95;0.50;;;21.20;64.80;;;;;;4994825;28;20077;-61
2022/10/03 13:01:49;;;;;;;3.08;0.90;;;21.20;64.90;;;;;;4994417;28;20046;-61
2022/10/03 13:04:29;;;;;;;3.45;0.52;;;21.20;64.80;;;;;;4995205;28;20471;-61
2022/10/03 13:07:17;;;;;;;3.05;0.70;;;21.20;64.90;;;;;;4994926;28;20078;-61
2022/10/03 13:10:08;;;;;;;2.50;0.50;;;21.20;64.90;;;;;;4994611;28;20054;-61
2022/10/03 13:12:49;;;;;;;2.83;0.30;;;21.20;64.90;;;;;;4995387;28;20054;-61
2022/10/03 13:15:17;;;;;;;4.47;0.82;;;21.20;64.90;;;;;;4993672;28;20474;-61
2022/10/03 13:18:13;;;;;;;2.92;0.63;;;21.20;64.90;;;;;;4995494;28;20061;-60
2022/10/03 13:20:42;;;;;;;2.85;0.60;;;21.10;64.80;;;;;;4993740;28;20077;-60
2022/10/03 13:23:37;;;;;;;3.03;0.50;;;21.10;64.80;;;;;;4994046;28;20128;-60
2022/10/03 13:26:30;;;;;;;2.30;0.60;;;21.10;64.90;;;;;;4987257;28;20061;-60
2022/10/03 13:29:11;;;;;;;3.65;0.57;;;21.10;64.90;;;;;;4994629;28;20046;-61
2022/10/03 13:31:52;;;;;;;2.97;0.43;;;21.10;64.90;;;;;;4995184;28;20054;-60
2022/10/03 13:34:18;;;;;;;3.08;0.65;;;21.10;64.90;;;;;;4992970;28;20034;-60
2022/10/03 13:37:04;;;;;;;3.50;0.52;;;21.10;65.00;;;;;;4994051;28;20045;-61
2022/10/03 13:39:45;;;;;;;3.47;0.43;;;21.10;64.90;;;;;;4993644;28;20048;-61
2022/10/03 13:42:36;;;;;;;4.22;0.50;;;21.20;65.00;;;;;;4992770;28;20047;-60
2022/10/03 13:45:24;;;;;;;2.05;0.40;;;21.20;65.00;;;;;;4994074;28;20050;-60
2022/10/03 13:48:06;;;;;;;;;;;21.20;65.00;;;;;;4995137;28;20062;-61
2022/10/03 13:50:37;;;;;;;3.85;0.50;;;21.20;65.00;;;;;;4994718;28;19922;-61
2022/10/03 13:53:07;;;;;;;2.15;0.40;;;21.20;64.90;;;;;;4993327;28;20505;-61
2022/10/03 13:55:36;;;;;;;2.92;0.50;;;21.20;64.90;;;;;;4994106;28;20120;-60
2022/10/03 13:58:39;;;;;;;3.40;0.50;;;21.30;64.90;;;;;;4994598;28;20398;-61
2022/10/03 14:01:12;;;;;;;2.58;0.60;;;21.30;64.90;;;;;;4994841;28;20046;-61
2022/10/03 14:03:51;;;;;;;2.08;0.50;;;21.30;64.90;;;;;;4992927;28;20042;-61
2022/10/03 14:06:26;;;;;;;3.22;0.40;;;21.30;64.80;;;;;;4994506;28;20042;-61
2022/10/03 14:09:21;;;;;;;2.75;0.60;;;21.30;64.80;;;;;;4977347;28;20050;-61
2022/10/03 14:11:50;;;;;;;2.45;0.52;;;21.30;64.80;;;;;;4960794;28;20042;-62
2022/10/03 14:14:40;;;;;;;3.22;0.68;;;21.30;64.80;;;;;;4993126;28;20078;-61
2022/10/03 14:17:37;;;;;;;3.70;0.75;;;21.30;64.70;;;;;;4992812;28;20038;-60
2022/10/03 14:20:18;;;;;;;4.95;0.57;;;21.30;64.80;;;;;;5000779;28;20050;-61
2022/10/03 14:22:49;;;;;;;3.47;0.40;;;21.30;64.90;;;;;;4995994;28;20049;-61
2022/10/03 14:25:21;;;;;;;3.70;0.50;;;21.30;65.00;;;;;;5011404;28;20082;-60
2022/10/03 14:28:40;;;;;;;3.35;0.95;;;21.30;65.00;;;;;;5012782;28;20541;-60
2022/10/03 14:31:30;;;;;;;3.17;0.70;;;21.30;65.00;;;;;;4967316;28;20136;-60
2022/10/03 14:34:27;;;;;;;3.20;0.63;;;21.30;65.00;;;;;;4995742;28;20092;-61